createdAt,value
2023-03-28T00:02:16.946Z,99320.45
2023-03-28T00:04:44.238Z,99320.46
2023-03-28T00:07:11.512Z,99318.45
2023-03-28T00:09:38.414Z,99322.45
2023-03-28T00:12:05.688Z,99322.30
2023-03-28T00:14:35.302Z,99315.38
2023-03-28T00:17:02.410Z,99313.90
2023-03-28T00:19:32.563Z,99304.34
2023-03-28T00:22:00.407Z,99302.13
2023-03-28T00:24:28.277Z,99300.02
2023-03-28T00:27:00.530Z,99295.64
2023-03-28T00:29:29.616Z,99292.75
2023-03-28T00:31:56.915Z,99289.77
2023-03-28T00:34:23.877Z,99283.41
2023-03-28T00:36:53.575Z,99281.66
2023-03-28T00:39:20.826Z,99274.67
2023-03-28T00:41:49.594Z,99271.25
2023-03-28T00:44:38.662Z,99265.75
2023-03-28T00:47:32.879Z,99257.34
2023-03-28T00:50:02.793Z,99259.02
2023-03-28T00:52:42.459Z,99262.19
2023-03-28T00:55:15.949Z,99260.91
2023-03-28T00:57:50.789Z,99260.42
2023-03-28T01:00:18.556Z,99265.02
2023-03-28T01:02:52.919Z,99265.80
2023-03-28T01:05:25.882Z,99265.21
2023-03-28T01:08:09.139Z,99268.86
2023-03-28T01:26:53.038Z,99253.98
2023-03-28T01:29:37.823Z,99248.27
2023-03-28T01:32:39.746Z,99246.84
2023-03-28T01:35:44.970Z,99254.09
2023-03-28T01:38:52.648Z,99240.58
2023-03-28T01:41:27.397Z,99241.50
2023-03-28T01:44:19.234Z,99242.29
2023-03-28T01:47:32.394Z,99237.35
2023-03-28T01:50:21.983Z,99238.04
2023-03-28T01:53:09.051Z,99235.27
2023-03-28T01:56:03.160Z,99228.14
2023-03-28T01:58:37.255Z,99216.35
2023-03-28T02:01:37.023Z,99214.73
2023-03-28T02:04:21.330Z,99218.41
2023-03-28T02:06:58.715Z,99223.91
2023-03-28T02:09:37.912Z,99226.85
2023-03-28T02:12:13.201Z,99231.89
2023-03-28T02:15:06.900Z,99224.77
2023-03-28T02:18:00.694Z,99219.30
2023-03-28T02:21:05.804Z,99221.34
2023-03-28T02:23:50.828Z,99234.75
2023-03-28T02:26:48.526Z,99245.13
2023-03-28T02:29:39.928Z,99237.15
2023-03-28T02:32:23.912Z,99228.70
2023-03-28T02:34:58.028Z,99232.76
2023-03-28T02:38:21.432Z,99229.23
2023-03-28T02:40:51.548Z,99225.59
2023-03-28T02:43:42.948Z,99231.69
2023-03-28T02:46:23.499Z,99232.30
2023-03-28T02:49:09.490Z,99239.42
2023-03-28T02:51:46.579Z,99239.81
2023-03-28T02:54:47.624Z,99239.05
2023-03-28T02:57:46.550Z,99244.86
2023-03-28T03:00:19.581Z,99242.58
2023-03-28T03:02:51.626Z,99243.64
2023-03-28T03:05:22.190Z,99247.42
2023-03-28T03:07:51.625Z,99248.14
2023-03-28T03:10:22.088Z,99245.26
2023-03-28T03:17:40.512Z,99252.31
2023-03-28T03:20:41.273Z,99253.27
2023-03-28T03:23:51.643Z,99257.13
2023-03-28T03:26:20.718Z,99259.02
2023-03-28T03:29:03.658Z,99263.16
2023-03-28T03:31:32.967Z,99259.31
2023-03-28T03:34:20.184Z,99259.86
2023-03-28T03:36:54.975Z,99259.02
2023-03-28T03:39:23.932Z,99252.55
2023-03-28T03:41:52.436Z,99247.57
2023-03-28T03:44:21.596Z,99247.83
2023-03-28T03:46:50.000Z,99252.55
2023-03-28T03:49:18.455Z,99243.77
2023-03-28T03:51:47.667Z,99239.82
2023-03-28T03:54:18.068Z,99237.15
2023-03-28T03:56:46.647Z,99235.46
2023-03-28T03:59:17.142Z,99231.63
2023-03-28T04:01:46.626Z,99229.98
2023-03-28T04:04:41.453Z,99225.77
2023-03-28T04:07:15.910Z,99222.31
2023-03-28T04:09:44.623Z,99211.39
2023-03-28T04:12:13.038Z,99203.77
2023-03-28T04:14:52.378Z,99195.39
2023-03-28T04:17:41.445Z,99187.05
2023-03-28T04:20:14.113Z,99177.59
2023-03-28T04:23:02.192Z,99161.35
2023-03-28T04:25:34.142Z,99150.34
2023-03-28T04:28:09.804Z,99142.54
2023-03-28T04:30:58.567Z,99137.00
2023-03-28T04:48:19.121Z,99071.11
2023-03-28T04:56:23.047Z,99048.19
2023-03-28T05:00:31.071Z,99040.02
2023-03-28T05:04:11.007Z,99029.25
2023-03-28T05:08:11.899Z,99024.13
2023-03-28T05:11:54.139Z,99013.43
2023-03-28T05:15:00.761Z,99004.52
2023-03-28T05:17:32.932Z,99000.12
2023-03-28T05:20:47.282Z,98999.84
2023-03-28T05:23:41.644Z,98999.43
2023-03-28T05:26:18.652Z,99000.83
2023-03-28T05:28:50.245Z,99001.88
2023-03-28T05:31:20.448Z,99001.85
2023-03-28T05:33:53.057Z,99011.23
2023-03-28T05:36:33.529Z,99013.75
2023-03-28T05:39:38.086Z,99016.31
2023-03-28T05:42:46.101Z,99016.44
2023-03-28T05:45:20.810Z,99020.20
2023-03-28T05:48:15.281Z,99022.20
2023-03-28T05:50:49.673Z,99022.39
2023-03-28T05:53:19.434Z,99024.16
2023-03-28T05:55:52.023Z,99022.84
2023-03-28T05:58:20.703Z,99023.95
2023-03-28T06:00:49.248Z,99034.80
2023-03-28T06:03:18.114Z,99036.04
2023-03-28T06:05:47.522Z,99031.90
2023-03-28T06:08:23.737Z,99039.93
2023-03-28T06:10:53.448Z,99038.16
2023-03-28T06:13:26.648Z,99041.16
2023-03-28T06:15:56.161Z,99046.24
2023-03-28T06:18:34.830Z,99051.09
2023-03-28T06:21:08.568Z,99058.30
2023-03-28T06:23:47.556Z,99058.71
2023-03-28T06:26:28.233Z,99061.95
2023-03-28T06:28:58.977Z,99065.99
2023-03-28T06:31:45.980Z,99073.77
2023-03-28T06:37:28.962Z,99077.63
2023-03-28T06:40:50.430Z,99080.04
2023-03-28T06:44:15.198Z,99081.91
2023-03-28T06:47:13.526Z,99083.42
2023-03-28T06:49:42.644Z,99082.64
2023-03-28T06:53:29.627Z,99081.56
2023-03-28T06:55:58.292Z,99079.11
2023-03-28T06:58:31.900Z,99080.11
2023-03-28T07:01:47.655Z,99079.88
2023-03-28T07:04:48.791Z,99077.93
2023-03-28T07:07:17.064Z,99073.95
2023-03-28T07:09:45.634Z,99068.96
2023-03-28T07:12:16.932Z,99070.52
2023-03-28T07:15:02.488Z,99065.65
2023-03-28T07:17:33.635Z,99060.19
2023-03-28T07:20:05.941Z,99058.75
2023-03-28T07:22:36.552Z,99055.07
2023-03-28T07:25:20.342Z,99053.45
2023-03-28T07:31:31.994Z,99057.73
2023-03-28T07:34:54.529Z,99053.01
2023-03-28T07:38:21.506Z,99049.14
2023-03-28T07:41:13.959Z,99038.23
2023-03-28T07:43:43.340Z,99046.81
2023-03-28T07:46:16.039Z,99052.45
2023-03-28T07:48:47.100Z,99059.54
2023-03-28T07:51:35.701Z,99066.51
2023-03-28T07:54:05.260Z,99071.88
2023-03-28T07:56:33.734Z,99096.91
2023-03-28T07:59:13.852Z,99107.94
2023-03-28T08:01:46.947Z,99119.89
2023-03-28T08:04:15.969Z,99121.27
2023-03-28T08:06:54.568Z,99132.28
2023-03-28T08:09:33.811Z,99148.99
2023-03-28T08:12:37.679Z,99169.92
2023-03-28T08:15:07.407Z,99183.11
2023-03-28T08:17:38.262Z,99196.70
2023-03-28T08:20:11.521Z,99211.41
2023-03-28T08:23:00.138Z,99233.15
2023-03-28T08:25:37.495Z,99245.39
2023-03-28T08:28:07.301Z,99254.45
2023-03-28T08:30:35.990Z,99264.63
2023-03-28T08:33:07.458Z,99269.98
2023-03-28T08:35:36.921Z,99268.45
2023-03-28T08:38:16.683Z,99274.55
2023-03-28T08:40:50.431Z,99277.85
2023-03-28T08:43:36.710Z,99288.36
2023-03-28T08:46:16.834Z,99299.92
2023-03-28T08:48:50.711Z,99310.25
2023-03-28T09:09:36.732Z,99364.16
2023-03-28T09:13:21.438Z,99375.38
2023-03-28T09:16:10.149Z,99400.21
2023-03-28T09:19:47.869Z,99421.23
2023-03-28T09:23:41.113Z,99412.70
2023-03-28T09:26:49.828Z,99405.85
2023-03-28T09:29:43.184Z,99418.30
2023-03-28T09:32:33.823Z,99412.70
2023-03-28T09:35:43.088Z,99412.96
2023-03-28T09:38:36.026Z,99413.91
2023-03-28T09:45:04.707Z,99427.77
2023-03-28T09:47:57.261Z,99427.81
2023-03-28T09:50:30.154Z,99430.68
2023-03-28T09:52:59.837Z,99431.27
2023-03-28T09:55:31.038Z,99445.02
2023-03-28T09:58:07.021Z,99452.98
2023-03-28T10:00:52.432Z,99455.80
2023-03-28T10:03:57.294Z,99462.93
2023-03-28T10:07:10.786Z,99477.01
2023-03-28T10:09:57.861Z,99490.83
2023-03-28T10:12:39.156Z,99488.25
2023-03-28T10:15:45.818Z,99488.36
2023-03-28T10:18:31.372Z,99482.97
2023-03-28T10:21:17.265Z,99480.61
2023-03-28T10:23:58.173Z,99485.06
2023-03-28T10:26:31.665Z,99490.77
2023-03-28T10:29:08.779Z,99504.52
2023-03-28T10:31:39.737Z,99504.06
2023-03-28T10:34:37.410Z,99503.56
2023-03-28T10:37:28.672Z,99504.77
2023-03-28T10:40:18.311Z,99511.71
2023-03-28T10:46:52.452Z,99516.95
2023-03-28T10:57:20.605Z,99536.71
2023-03-28T11:01:02.551Z,99538.92
2023-03-28T11:04:36.462Z,99533.84
2023-03-28T11:07:36.734Z,99530.53
2023-03-28T11:10:48.898Z,99526.39
2023-03-28T11:13:50.234Z,99528.43
2023-03-28T11:16:38.188Z,99533.23
2023-03-28T11:19:39.385Z,99529.21
2023-03-28T11:22:15.070Z,99533.16
2023-03-28T11:24:53.790Z,99544.76
2023-03-28T11:27:36.710Z,99559.31
2023-03-28T11:30:33.644Z,99565.23
2023-03-28T11:33:44.323Z,99567.83
2023-03-28T11:36:32.060Z,99581.97
2023-03-28T11:39:08.014Z,99581.13
2023-03-28T11:41:39.894Z,99575.93
2023-03-28T11:44:33.616Z,99580.07
2023-03-28T12:53:03.510Z,99638.02
2023-03-28T12:55:46.636Z,99640.98
2023-03-28T12:58:22.863Z,99654.55
2023-03-28T13:01:28.584Z,99677.45
2023-03-28T13:04:37.444Z,99736.63
2023-03-28T13:07:48.530Z,99814.17
2023-03-28T13:40:48.540Z,99767.77
2023-03-28T13:43:34.293Z,99794.62
2023-03-28T13:46:22.743Z,99778.23
2023-03-28T13:49:13.207Z,99761.25
2023-03-28T13:51:54.355Z,99750.04
2023-03-28T13:54:23.122Z,99747.69
2023-03-28T13:56:52.510Z,99744.12
2023-03-28T13:59:26.130Z,99737.31
2023-03-28T14:32:57.354Z,99774.70
2023-03-28T14:51:13.766Z,99801.11
2023-03-28T14:53:46.706Z,99789.52
2023-03-28T14:56:21.513Z,99775.10
2023-03-28T14:58:50.599Z,99764.30
2023-03-28T15:01:25.250Z,99773.02
2023-03-28T15:04:06.741Z,99792.62
2023-03-28T15:06:35.591Z,99857.88
2023-03-28T15:09:11.644Z,99870.45
2023-03-28T15:11:43.801Z,99916.23
2023-03-28T15:14:26.443Z,99941.11
2023-03-28T15:17:02.247Z,99947.91
2023-03-28T15:19:40.580Z,99948.28
2023-03-28T15:22:19.113Z,99953.67
2023-03-28T15:24:50.043Z,99938.82
2023-03-28T15:27:32.066Z,99914.73
2023-03-28T15:30:05.110Z,99888.73
2023-03-28T15:32:32.079Z,99869.09
2023-03-28T15:35:19.442Z,99859.15
2023-03-28T15:37:46.330Z,99855.61
2023-03-28T15:40:18.731Z,99854.83
2023-03-28T15:42:50.385Z,99860.48
2023-03-28T15:45:19.246Z,99896.91
2023-03-28T15:47:54.868Z,99916.08
2023-03-28T15:50:35.954Z,99944.31
2023-03-28T15:53:06.224Z,99908.90
2023-03-28T15:55:34.060Z,99906.23
2023-03-28T15:58:03.352Z,99897.40
2023-03-28T16:00:51.322Z,99897.52
2023-03-28T16:03:25.814Z,99889.75
2023-03-28T16:06:12.808Z,99896.26
2023-03-28T16:08:49.032Z,99898.80
2023-03-28T16:11:19.254Z,99908.71
2023-03-28T16:14:07.212Z,99903.55
2023-03-28T16:16:46.685Z,99907.02
2023-03-28T16:19:24.329Z,99904.21
2023-03-28T16:21:54.726Z,99905.36
2023-03-28T16:24:24.794Z,99902.23
2023-03-28T16:26:51.550Z,99895.66
2023-03-28T16:29:21.426Z,99900.83
2023-03-28T16:31:48.582Z,99913.34
2023-03-28T16:34:20.962Z,99914.54
2023-03-28T16:36:48.200Z,99920.63
2023-03-28T16:39:15.321Z,99927.21
2023-03-28T16:41:42.375Z,99923.13
2023-03-28T16:44:09.418Z,99923.52
2023-03-28T16:46:37.338Z,99930.93
2023-03-28T16:49:04.254Z,99937.16
2023-03-28T16:51:31.426Z,99941.04
2023-03-28T16:53:58.244Z,99945.21
2023-03-28T16:56:29.571Z,99948.75
2023-03-28T16:58:57.226Z,99950.83
2023-03-28T17:01:23.970Z,99951.46
2023-03-28T17:03:54.919Z,99949.95
2023-03-28T17:06:22.068Z,99951.73
2023-03-28T17:08:55.980Z,99950.11
2023-03-28T17:11:25.077Z,99949.35
2023-03-28T17:14:03.200Z,99941.27
2023-03-28T17:20:13.764Z,99935.38
2023-03-28T17:22:42.821Z,99931.37
2023-03-28T17:25:10.665Z,99931.63
2023-03-28T17:27:41.623Z,99936.30
2023-03-28T17:30:43.914Z,99934.73
2023-03-28T17:33:33.709Z,99936.91
2023-03-28T17:36:32.946Z,99938.54
2023-03-28T17:39:23.808Z,99937.56
2023-03-28T17:49:33.855Z,99936.70
2023-03-28T17:52:13.713Z,99945.38
2023-03-28T17:54:47.837Z,99946.73
2023-03-28T17:57:17.960Z,99945.88
2023-03-28T17:59:45.282Z,99947.23
2023-03-28T18:02:14.346Z,99952.80
2023-03-28T18:04:43.986Z,99951.60
2023-03-28T18:07:18.446Z,99959.09
2023-03-28T18:09:45.919Z,99956.61
2023-03-28T18:12:13.303Z,99963.22
2023-03-28T18:14:40.782Z,99968.89
2023-03-28T18:17:09.049Z,99967.16
2023-03-28T18:19:36.912Z,99971.23
2023-03-28T18:43:50.968Z,99986.23
2023-03-28T18:46:17.838Z,99989.77
2023-03-28T18:48:48.444Z,99987.58
2023-03-28T18:51:24.602Z,99990.16
2023-03-28T18:53:53.393Z,99992.60
2023-03-28T18:56:21.470Z,99998.23
2023-03-28T19:13:22.214Z,99998.81
2023-03-28T20:21:31.217Z,100027.20
2023-03-28T21:16:39.969Z,100081.77
2023-03-28T21:19:11.536Z,100082.55
2023-03-28T21:21:41.649Z,100085.55
2023-03-28T21:24:11.243Z,100085.36
2023-03-28T21:26:38.359Z,100087.80
2023-03-28T21:29:05.760Z,100093.84
2023-03-28T21:31:32.509Z,100101.32
2023-03-28T21:34:00.216Z,100104.56
2023-03-28T21:36:31.680Z,100106.00
2023-03-28T21:38:58.709Z,100107.83
2023-03-28T21:41:26.603Z,100112.29
2023-03-28T21:43:54.000Z,100112.70
2023-03-28T21:46:21.406Z,100111.71
2023-03-28T21:48:49.216Z,100109.73
2023-03-28T21:51:16.816Z,100113.03
2023-03-28T21:53:45.967Z,100117.44
2023-03-28T21:56:14.114Z,100127.23
2023-03-28T21:58:41.034Z,100121.77
2023-03-28T22:01:07.925Z,100122.73
2023-03-28T22:03:36.562Z,100122.17
2023-03-28T22:06:03.899Z,100122.92
2023-03-28T22:08:31.067Z,100129.52
2023-03-28T22:11:03.714Z,100129.02
2023-03-28T22:13:30.884Z,100128.52
2023-03-28T22:16:03.435Z,100138.06
2023-03-28T22:18:30.074Z,100139.47
2023-03-28T22:20:57.119Z,100139.77
2023-03-28T22:23:24.216Z,100146.93
2023-03-28T22:25:52.024Z,100147.20
2023-03-28T22:28:20.570Z,100149.22
2023-03-28T22:30:47.356Z,100151.39
2023-03-28T22:33:14.235Z,100148.58
2023-03-28T22:35:41.338Z,100153.84
2023-03-28T22:38:10.664Z,100156.00
2023-03-28T22:40:39.938Z,100160.36
2023-03-28T22:43:06.863Z,100162.98
2023-03-28T22:45:33.885Z,100169.58
2023-03-28T22:48:02.615Z,100173.24
2023-03-28T22:50:29.720Z,100171.58
2023-03-28T22:52:56.798Z,100169.30
2023-03-28T22:55:23.713Z,100167.11
2023-03-28T22:57:51.815Z,100166.42
2023-03-28T23:00:22.322Z,100164.81
2023-03-28T23:03:12.593Z,100165.98
2023-03-28T23:06:35.617Z,100172.00
2023-03-28T23:10:25.509Z,100167.85
2023-03-28T23:13:52.684Z,100169.98
2023-03-28T23:17:01.804Z,100164.39
2023-03-28T23:19:32.345Z,100165.69
2023-03-28T23:22:00.306Z,100170.66
2023-03-28T23:24:27.838Z,100169.19
2023-03-28T23:26:55.496Z,100169.46
2023-03-28T23:29:25.257Z,100172.71
2023-03-28T23:31:54.842Z,100177.15
2023-03-28T23:34:22.296Z,100178.06
2023-03-28T23:36:51.705Z,100185.03
2023-03-28T23:39:22.133Z,100176.18
2023-03-28T23:41:52.962Z,100172.02
2023-03-28T23:44:19.681Z,100173.89
2023-03-28T23:46:49.475Z,100172.77
2023-03-28T23:49:17.102Z,100175.14
2023-03-28T23:51:50.150Z,100177.63
2023-03-28T23:54:19.242Z,100176.29
2023-03-28T23:56:46.810Z,100173.54
2023-03-28T23:59:16.281Z,100171.85
